createdAt,value
2022-07-30T00:01:35.844Z,24.23
2022-07-30T00:04:03.552Z,24.18
2022-07-30T00:06:30.985Z,24.13
2022-07-30T00:08:58.862Z,24.11
2022-07-30T00:11:28.002Z,24.08
2022-07-30T00:13:56.050Z,23.92
2022-07-30T00:16:23.552Z,23.89
2022-07-30T00:18:52.583Z,23.88
2022-07-30T00:21:38.695Z,23.84
2022-07-30T00:24:07.219Z,23.83
2022-07-30T00:26:34.436Z,23.80
2022-07-30T00:29:01.828Z,23.77
2022-07-30T00:31:29.366Z,23.73
2022-07-30T00:33:57.974Z,23.67
2022-07-30T00:36:25.532Z,23.63
2022-07-30T00:38:52.710Z,23.60
2022-07-30T00:41:20.338Z,23.59
2022-07-30T00:43:47.979Z,23.55
2022-07-30T00:46:15.498Z,23.49
2022-07-30T00:48:43.379Z,23.42
2022-07-30T00:51:12.454Z,23.37
2022-07-30T00:53:40.800Z,23.31
2022-07-30T00:56:08.008Z,23.26
2022-07-30T00:58:35.390Z,23.26
2022-07-30T01:01:02.816Z,23.22
2022-07-30T01:03:30.074Z,23.16
2022-07-30T01:05:57.230Z,23.11
2022-07-30T01:08:26.009Z,23.06
2022-07-30T01:10:53.169Z,22.99
2022-07-30T01:13:20.409Z,22.93
2022-07-30T01:15:47.993Z,22.85
2022-07-30T01:18:17.482Z,22.78
2022-07-30T01:20:51.798Z,22.73
2022-07-30T01:23:27.717Z,22.52
2022-07-30T01:26:02.157Z,22.47
2022-07-30T01:28:33.645Z,22.38
2022-07-30T01:31:03.029Z,22.38
2022-07-30T01:33:32.670Z,22.36
2022-07-30T01:36:02.719Z,22.32
2022-07-30T01:38:34.974Z,22.32
2022-07-30T01:41:05.874Z,22.30
2022-07-30T01:43:36.043Z,22.25
2022-07-30T01:46:04.375Z,22.22
2022-07-30T01:48:35.849Z,22.20
2022-07-30T01:51:06.058Z,22.18
2022-07-30T01:53:37.861Z,22.16
2022-07-30T01:56:10.838Z,22.12
2022-07-30T01:58:41.357Z,22.06
2022-07-30T02:01:20.678Z,22.02
2022-07-30T02:03:48.567Z,21.92
2022-07-30T02:06:21.654Z,21.90
2022-07-30T02:08:54.555Z,21.85
2022-07-30T02:11:43.948Z,21.84
2022-07-30T02:14:19.697Z,21.83
2022-07-30T02:16:53.218Z,21.84
2022-07-30T02:19:26.305Z,21.81
2022-07-30T02:22:08.734Z,21.80
2022-07-30T02:24:38.652Z,21.77
2022-07-30T02:27:12.769Z,21.74
2022-07-30T02:29:43.988Z,21.70
2022-07-30T02:32:17.706Z,21.68
2022-07-30T02:34:48.342Z,21.67
2022-07-30T02:37:18.302Z,21.64
2022-07-30T02:40:07.010Z,21.58
2022-07-30T02:42:37.158Z,21.55
2022-07-30T02:45:05.921Z,21.53
2022-07-30T02:47:33.536Z,21.50
2022-07-30T02:50:05.432Z,21.48
2022-07-30T02:52:33.106Z,21.46
2022-07-30T02:55:02.501Z,21.43
2022-07-30T02:57:32.813Z,21.38
2022-07-30T03:00:02.658Z,21.36
2022-07-30T03:02:31.630Z,21.36
2022-07-30T03:05:01.183Z,21.33
2022-07-30T03:07:29.869Z,21.29
2022-07-30T03:09:59.237Z,21.22
2022-07-30T03:12:30.255Z,21.21
2022-07-30T03:14:58.482Z,21.20
2022-07-30T03:17:31.641Z,21.23
2022-07-30T03:20:02.437Z,21.21
2022-07-30T03:22:33.254Z,21.23
2022-07-30T03:25:02.446Z,21.22
2022-07-30T03:27:31.282Z,21.23
2022-07-30T03:30:02.463Z,21.24
2022-07-30T03:32:32.914Z,21.24
2022-07-30T03:35:05.662Z,21.22
2022-07-30T03:37:35.942Z,21.25
2022-07-30T03:40:04.251Z,21.28
2022-07-30T03:42:32.338Z,21.31
2022-07-30T03:45:01.624Z,21.33
2022-07-30T03:47:33.917Z,21.37
2022-07-30T03:50:02.401Z,21.41
2022-07-30T03:52:34.778Z,21.43
2022-07-30T03:55:03.805Z,21.43
2022-07-30T03:57:49.031Z,21.46
2022-07-30T04:00:18.315Z,21.48
2022-07-30T04:02:51.440Z,21.51
2022-07-30T04:05:41.395Z,21.61
2022-07-30T04:08:11.230Z,21.66
2022-07-30T04:10:39.394Z,21.67
2022-07-30T04:13:21.620Z,21.71
2022-07-30T04:16:37.018Z,21.77
2022-07-30T04:18:48.702Z,21.75
2022-07-30T04:21:18.863Z,21.85
2022-07-30T04:24:01.834Z,21.92
2022-07-30T04:26:32.953Z,22.02
2022-07-30T04:29:00.771Z,22.10
2022-07-30T04:31:28.873Z,22.10
2022-07-30T04:34:04.827Z,22.10
2022-07-30T04:36:40.280Z,22.14
2022-07-30T04:39:08.473Z,22.21
2022-07-30T04:41:49.362Z,22.34
2022-07-30T04:44:34.497Z,22.47
2022-07-30T04:47:20.693Z,22.67
2022-07-30T04:50:03.513Z,22.79
2022-07-30T04:52:31.353Z,22.95
2022-07-30T04:55:02.921Z,23.15
2022-07-30T04:57:31.627Z,23.33
2022-07-30T04:59:58.833Z,23.46
2022-07-30T05:02:30.897Z,23.75
2022-07-30T05:04:59.650Z,24.01
2022-07-30T05:07:30.056Z,24.24
2022-07-30T05:09:58.294Z,24.42
2022-07-30T05:12:32.952Z,24.67
2022-07-30T05:15:00.844Z,24.99
2022-07-30T05:17:28.291Z,25.24
2022-07-30T05:19:55.513Z,25.46
2022-07-30T05:22:25.635Z,25.71
2022-07-30T05:24:54.305Z,26.02
2022-07-30T05:27:21.451Z,26.29
2022-07-30T05:29:49.059Z,26.51
2022-07-30T05:32:19.339Z,26.71
2022-07-30T05:34:49.931Z,26.88
2022-07-30T05:37:17.768Z,27.09
2022-07-30T05:40:02.224Z,27.28
2022-07-30T05:43:04.425Z,27.52
2022-07-30T05:45:31.986Z,27.63
2022-07-30T05:47:59.283Z,27.82
2022-07-30T05:50:26.530Z,28.02
2022-07-30T05:52:53.910Z,28.20
2022-07-30T05:55:44.307Z,28.40
2022-07-30T05:58:31.536Z,28.57
2022-07-30T06:00:59.500Z,28.73
2022-07-30T06:03:29.040Z,28.91
2022-07-30T06:06:18.593Z,29.13
2022-07-30T06:08:50.128Z,29.34
2022-07-30T06:11:17.565Z,29.48
2022-07-30T06:13:46.453Z,29.52
2022-07-30T06:16:13.731Z,29.54
2022-07-30T06:18:40.977Z,29.67
2022-07-30T06:21:16.757Z,29.86
2022-07-30T06:24:02.590Z,30.02
2022-07-30T06:26:43.417Z,30.15
2022-07-30T06:29:13.465Z,30.35
2022-07-30T06:31:41.646Z,30.43
2022-07-30T06:34:11.299Z,30.45
2022-07-30T06:36:41.964Z,30.59
2022-07-30T06:39:53.764Z,30.65
2022-07-30T06:42:24.611Z,30.86
2022-07-30T06:45:11.954Z,31.04
2022-07-30T06:48:02.101Z,31.26
2022-07-30T06:50:32.274Z,31.45
2022-07-30T06:52:59.750Z,31.67
2022-07-30T06:55:36.803Z,31.87
2022-07-30T06:58:04.103Z,32.03
2022-07-30T07:00:58.303Z,32.26
2022-07-30T07:03:26.381Z,32.38
2022-07-30T07:06:07.822Z,32.55
2022-07-30T07:08:36.172Z,32.62
2022-07-30T07:11:03.694Z,32.75
2022-07-30T07:13:34.746Z,32.92
2022-07-30T07:16:07.185Z,33.08
2022-07-30T07:18:36.843Z,33.22
2022-07-30T07:21:08.094Z,33.35
2022-07-30T07:23:41.506Z,33.52
2022-07-30T07:26:31.130Z,33.69
2022-07-30T07:29:01.066Z,33.89
2022-07-30T07:32:06.472Z,34.13
2022-07-30T07:34:19.805Z,34.32
2022-07-30T07:36:47.377Z,34.29
2022-07-30T07:39:14.907Z,34.31
2022-07-30T07:41:48.379Z,34.38
2022-07-30T07:44:20.328Z,34.57
2022-07-30T07:46:48.983Z,34.60
2022-07-30T07:49:17.074Z,34.74
2022-07-30T07:51:48.810Z,34.94
2022-07-30T07:54:21.981Z,34.97
2022-07-30T07:56:52.696Z,34.93
2022-07-30T07:59:23.522Z,34.95
2022-07-30T08:01:56.913Z,35.13
2022-07-30T08:04:51.478Z,35.35
2022-07-30T08:07:37.003Z,35.33
2022-07-30T08:10:11.131Z,35.48
2022-07-30T08:12:53.660Z,35.68
2022-07-30T08:15:35.819Z,35.85
2022-07-30T08:18:23.118Z,36.08
2022-07-30T08:21:22.692Z,36.08
2022-07-30T08:23:50.823Z,36.14
2022-07-30T08:26:17.983Z,36.21
2022-07-30T08:28:45.793Z,36.34
2022-07-30T08:31:13.753Z,36.39
2022-07-30T08:33:42.369Z,36.30
2022-07-30T08:36:10.294Z,36.29
2022-07-30T08:38:39.135Z,36.34
2022-07-30T08:41:07.726Z,36.22
2022-07-30T08:43:36.622Z,36.27
2022-07-30T08:46:08.954Z,35.92
2022-07-30T08:48:59.310Z,35.63
2022-07-30T08:51:28.801Z,35.51
2022-07-30T08:54:14.515Z,35.65
2022-07-30T08:56:42.840Z,35.51
2022-07-30T08:59:10.328Z,35.36
2022-07-30T09:01:39.248Z,35.28
2022-07-30T09:04:08.410Z,35.21
2022-07-30T09:06:36.750Z,35.23
2022-07-30T09:09:05.505Z,35.49
2022-07-30T09:11:34.970Z,35.61
2022-07-30T09:14:09.234Z,35.83
2022-07-30T09:16:36.872Z,36.07
2022-07-30T09:19:14.610Z,36.15
2022-07-30T09:21:42.151Z,36.22
2022-07-30T09:24:21.694Z,36.45
2022-07-30T09:27:03.135Z,36.41
2022-07-30T09:29:58.686Z,36.16
2022-07-30T09:32:49.336Z,36.33
2022-07-30T09:35:56.553Z,36.48
2022-07-30T09:38:54.355Z,36.85
2022-07-30T09:41:47.910Z,37.19
2022-07-30T09:44:24.282Z,37.34
2022-07-30T09:46:56.492Z,37.10
2022-07-30T09:49:32.920Z,37.05
2022-07-30T09:52:01.606Z,37.19
2022-07-30T09:54:51.958Z,37.22
2022-07-30T09:57:27.584Z,37.28
2022-07-30T10:00:16.946Z,37.12
2022-07-30T10:02:51.837Z,37.32
2022-07-30T10:05:53.316Z,37.18
2022-07-30T10:08:39.257Z,37.24
2022-07-30T10:11:09.867Z,37.39
2022-07-30T10:13:39.323Z,37.25
2022-07-30T10:16:09.130Z,37.36
2022-07-30T10:18:37.355Z,37.55
2022-07-30T10:21:25.743Z,37.84
2022-07-30T10:24:17.139Z,38.14
2022-07-30T10:27:13.427Z,38.32
2022-07-30T10:29:42.574Z,38.15
2022-07-30T10:32:10.638Z,38.29
2022-07-30T10:34:42.657Z,38.40
2022-07-30T10:37:12.987Z,38.35
2022-07-30T10:39:52.687Z,38.32
2022-07-30T10:42:32.048Z,38.17
2022-07-30T10:45:17.554Z,38.04
2022-07-30T10:47:48.923Z,37.94
2022-07-30T10:50:19.410Z,38.07
2022-07-30T10:52:51.366Z,38.31
2022-07-30T10:55:36.813Z,38.31
2022-07-30T10:58:08.114Z,38.19
2022-07-30T11:00:38.270Z,38.06
2022-07-30T11:03:20.254Z,38.19
2022-07-30T11:05:51.452Z,38.20
2022-07-30T11:08:36.261Z,38.11
2022-07-30T11:12:05.497Z,38.05
2022-07-30T11:14:57.369Z,38.18
2022-07-30T11:17:25.106Z,38.18
2022-07-30T11:20:12.261Z,37.97
2022-07-30T11:22:41.353Z,37.89
2022-07-30T11:25:13.259Z,37.92
2022-07-30T11:27:45.977Z,37.76
2022-07-30T11:30:34.292Z,37.78
2022-07-30T11:33:33.077Z,37.87
2022-07-30T11:36:10.631Z,37.82
2022-07-30T11:38:53.150Z,37.75
2022-07-30T11:41:20.518Z,37.81
2022-07-30T11:43:49.156Z,37.89
2022-07-30T11:46:29.014Z,38.27
2022-07-30T11:48:58.747Z,38.42
2022-07-30T11:51:26.595Z,38.29
2022-07-30T11:54:01.689Z,38.45
2022-07-30T11:56:29.354Z,38.72
2022-07-30T11:59:03.583Z,38.49
2022-07-30T12:01:33.428Z,38.23
2022-07-30T12:04:04.154Z,38.11
2022-07-30T12:06:36.537Z,38.11
2022-07-30T12:09:03.768Z,38.23
2022-07-30T12:11:32.510Z,38.34
2022-07-30T12:14:02.347Z,38.50
2022-07-30T12:16:31.080Z,38.49
2022-07-30T12:19:02.026Z,38.70
2022-07-30T12:21:29.327Z,39.09
2022-07-30T12:23:59.252Z,39.37
2022-07-30T12:26:29.019Z,39.27
2022-07-30T12:28:57.293Z,39.33
2022-07-30T12:31:26.720Z,39.45
2022-07-30T12:33:58.311Z,39.30
2022-07-30T12:36:29.619Z,39.12
2022-07-30T12:38:58.173Z,39.07
2022-07-30T12:41:43.718Z,38.98
2022-07-30T12:44:11.099Z,38.68
2022-07-30T12:46:41.496Z,38.43
2022-07-30T12:49:22.363Z,38.32
2022-07-30T12:51:52.122Z,38.39
2022-07-30T12:54:20.453Z,38.48
2022-07-30T12:56:59.972Z,38.72
2022-07-30T12:59:28.229Z,38.89
2022-07-30T13:01:58.298Z,38.87
2022-07-30T13:04:26.496Z,38.85
2022-07-30T13:07:04.209Z,38.78
2022-07-30T13:09:31.683Z,38.76
2022-07-30T13:11:58.954Z,38.81
2022-07-30T13:14:26.870Z,38.78
2022-07-30T13:16:57.012Z,38.89
2022-07-30T13:19:25.042Z,38.96
2022-07-30T13:21:52.230Z,38.97
2022-07-30T13:24:20.894Z,38.95
2022-07-30T13:27:01.396Z,38.76
2022-07-30T13:29:28.806Z,38.71
2022-07-30T13:31:57.335Z,38.69
2022-07-30T13:34:24.552Z,38.72
2022-07-30T13:36:51.731Z,38.51
2022-07-30T13:39:18.939Z,38.39
2022-07-30T13:41:46.098Z,38.14
2022-07-30T13:44:13.232Z,38.03
2022-07-30T13:46:41.464Z,37.93
2022-07-30T13:49:11.024Z,37.88
2022-07-30T13:51:38.335Z,37.89
2022-07-30T13:54:05.565Z,37.91
2022-07-30T13:56:32.933Z,37.82
2022-07-30T13:59:07.996Z,37.62
2022-07-30T14:01:35.945Z,37.57
2022-07-30T14:04:03.195Z,37.53
2022-07-30T14:06:31.862Z,37.49
2022-07-30T14:08:59.006Z,37.50
2022-07-30T14:11:26.222Z,37.47
2022-07-30T14:13:53.427Z,37.33
2022-07-30T14:16:43.658Z,37.31
2022-07-30T14:19:07.918Z,37.38
2022-07-30T14:21:52.693Z,37.33
2022-07-30T14:24:20.669Z,37.31
2022-07-30T14:26:48.053Z,37.34
2022-07-30T14:29:15.243Z,37.44
2022-07-30T14:31:42.728Z,37.51
2022-07-30T14:34:10.362Z,37.40
2022-07-30T14:36:37.690Z,37.22
2022-07-30T14:39:06.409Z,37.13
2022-07-30T14:41:34.959Z,37.15
2022-07-30T14:44:02.560Z,37.25
2022-07-30T14:46:29.788Z,37.09
2022-07-30T14:48:57.050Z,37.00
2022-07-30T14:51:26.347Z,36.91
2022-07-30T14:53:54.436Z,36.82
2022-07-30T14:56:25.142Z,36.74
2022-07-30T14:58:53.156Z,36.71
2022-07-30T15:01:20.372Z,36.68
2022-07-30T15:03:47.721Z,36.60
2022-07-30T15:06:18.261Z,36.51
2022-07-30T15:08:46.190Z,36.32
2022-07-30T15:11:13.407Z,36.37
2022-07-30T15:13:50.399Z,36.45
2022-07-30T15:16:18.814Z,36.52
2022-07-30T15:18:46.616Z,36.46
2022-07-30T15:21:14.239Z,36.42
2022-07-30T15:23:41.500Z,36.28
2022-07-30T15:26:09.011Z,36.04
2022-07-30T15:28:36.367Z,35.89
2022-07-30T15:31:05.214Z,35.79
2022-07-30T15:33:36.948Z,35.67
2022-07-30T15:36:05.072Z,35.56
2022-07-30T15:38:32.269Z,35.48
2022-07-30T15:40:59.942Z,35.51
2022-07-30T15:43:27.196Z,35.45
2022-07-30T15:45:56.308Z,35.35
2022-07-30T15:48:27.185Z,35.32
2022-07-30T15:51:02.015Z,35.21
2022-07-30T15:53:30.293Z,35.08
2022-07-30T15:55:57.512Z,34.91
2022-07-30T15:58:24.802Z,34.83
2022-07-30T16:00:52.242Z,34.71
2022-07-30T16:03:19.555Z,34.61
2022-07-30T16:05:51.585Z,34.56
2022-07-30T16:08:19.980Z,34.42
2022-07-30T16:10:47.238Z,34.37
2022-07-30T16:13:14.438Z,34.28
2022-07-30T16:15:41.619Z,34.23
2022-07-30T16:18:08.998Z,34.20
2022-07-30T16:20:36.606Z,34.10
2022-07-30T16:23:09.129Z,33.95
2022-07-30T16:25:39.834Z,33.91
2022-07-30T16:28:07.296Z,33.82
2022-07-30T16:30:34.422Z,33.76
2022-07-30T16:33:01.929Z,33.71
2022-07-30T16:35:29.152Z,33.70
2022-07-30T16:38:02.671Z,33.55
2022-07-30T16:40:31.851Z,33.38
2022-07-30T16:42:59.781Z,33.20
2022-07-30T16:45:28.470Z,33.05
2022-07-30T16:47:55.688Z,32.96
2022-07-30T16:50:22.834Z,32.83
2022-07-30T16:52:50.039Z,32.77
2022-07-30T16:55:17.253Z,32.64
2022-07-30T16:57:45.812Z,32.53
2022-07-30T17:00:14.772Z,32.46
2022-07-30T17:02:42.040Z,32.36
2022-07-30T17:05:13.757Z,32.28
2022-07-30T17:07:41.303Z,32.10
2022-07-30T17:10:11.087Z,31.92
2022-07-30T17:12:38.609Z,31.84
2022-07-30T17:15:09.884Z,31.77
2022-07-30T17:17:37.138Z,31.68
2022-07-30T17:20:06.551Z,31.65
2022-07-30T17:22:33.889Z,31.52
2022-07-30T17:25:01.260Z,31.44
2022-07-30T17:27:30.053Z,31.37
2022-07-30T17:29:57.373Z,31.26
2022-07-30T17:32:26.065Z,31.19
2022-07-30T17:34:54.417Z,31.13
2022-07-30T17:37:21.850Z,31.09
2022-07-30T17:40:29.547Z,30.99
2022-07-30T17:42:37.688Z,30.92
2022-07-30T17:45:05.847Z,30.81
2022-07-30T17:47:34.420Z,30.77
2022-07-30T17:50:01.800Z,30.77
2022-07-30T17:52:29.031Z,30.77
2022-07-30T17:54:56.419Z,30.69
2022-07-30T17:57:23.716Z,30.64
2022-07-30T17:59:50.868Z,30.62
2022-07-30T18:02:18.111Z,30.58
2022-07-30T18:04:56.693Z,30.47
2022-07-30T18:07:23.967Z,30.41
2022-07-30T18:09:51.354Z,30.37
2022-07-30T18:12:18.635Z,30.32
2022-07-30T18:14:45.977Z,30.29
2022-07-30T18:17:14.481Z,30.26
2022-07-30T18:19:41.908Z,30.20
2022-07-30T18:22:10.976Z,30.21
2022-07-30T18:24:43.732Z,30.24
2022-07-30T18:27:12.047Z,30.23
2022-07-30T18:29:39.484Z,30.20
2022-07-30T18:32:07.349Z,30.20
2022-07-30T18:34:34.813Z,30.21
2022-07-30T18:37:02.214Z,30.25
2022-07-30T18:39:30.994Z,30.27
2022-07-30T18:41:58.659Z,30.26
2022-07-30T18:44:26.011Z,30.20
2022-07-30T18:46:53.179Z,30.18
2022-07-30T18:49:36.195Z,30.16
2022-07-30T18:52:06.076Z,30.20
2022-07-30T18:54:35.870Z,30.17
2022-07-30T18:57:03.603Z,30.09
2022-07-30T18:59:30.897Z,30.05
2022-07-30T19:01:58.178Z,29.99
2022-07-30T19:04:25.729Z,29.99
2022-07-30T19:06:53.098Z,30.01
2022-07-30T19:09:20.234Z,30.01
2022-07-30T19:11:48.912Z,30.02
2022-07-30T19:14:16.275Z,30.05
2022-07-30T19:16:44.281Z,30.05
2022-07-30T19:19:15.081Z,29.99
2022-07-30T19:21:42.396Z,29.91
2022-07-30T19:24:10.235Z,29.86
2022-07-30T19:26:39.667Z,29.82
2022-07-30T19:29:08.296Z,29.78
2022-07-30T19:31:35.804Z,29.68
2022-07-30T19:34:03.767Z,29.66
2022-07-30T19:36:31.084Z,29.67
2022-07-30T19:38:59.017Z,29.68
2022-07-30T19:41:30.469Z,29.63
2022-07-30T19:44:00.303Z,29.58
2022-07-30T19:46:28.843Z,29.49
2022-07-30T19:48:57.008Z,29.41
2022-07-30T19:52:09.784Z,29.33
2022-07-30T19:54:12.628Z,29.23
2022-07-30T19:56:40.993Z,29.14
2022-07-30T19:59:14.608Z,29.02
2022-07-30T20:01:43.761Z,28.97
2022-07-30T20:04:11.901Z,28.94
2022-07-30T20:06:45.966Z,28.95
2022-07-30T20:09:14.980Z,28.84
2022-07-30T20:11:42.336Z,28.82
2022-07-30T20:14:10.626Z,28.79
2022-07-30T20:16:38.251Z,28.77
2022-07-30T20:19:07.952Z,28.68
2022-07-30T20:21:54.255Z,28.63
2022-07-30T20:24:24.051Z,28.57
2022-07-30T20:26:52.938Z,28.49
2022-07-30T20:29:20.764Z,28.48
2022-07-30T20:31:49.793Z,28.48
2022-07-30T20:34:23.317Z,28.42
2022-07-30T20:36:51.252Z,28.39
2022-07-30T20:39:19.802Z,28.33
2022-07-30T20:41:47.272Z,28.26
2022-07-30T20:44:23.052Z,28.24
2022-07-30T20:46:52.767Z,28.18
2022-07-30T20:49:28.993Z,28.09
2022-07-30T20:52:02.125Z,28.01
2022-07-30T20:54:30.329Z,27.94
2022-07-30T20:56:58.004Z,27.85
2022-07-30T20:59:25.407Z,27.71
2022-07-30T21:01:53.042Z,27.48
2022-07-30T21:04:25.886Z,27.29
2022-07-30T21:06:54.044Z,27.18
2022-07-30T21:09:21.255Z,27.03
2022-07-30T21:11:50.522Z,27.04
2022-07-30T21:14:20.054Z,27.10
2022-07-30T21:16:48.116Z,27.12
2022-07-30T21:19:17.668Z,27.04
2022-07-30T21:21:48.889Z,27.02
2022-07-30T21:24:19.492Z,27.04
2022-07-30T21:26:51.095Z,27.04
2022-07-30T21:29:19.252Z,27.06
2022-07-30T21:32:01.473Z,27.08
2022-07-30T21:34:40.318Z,27.15
2022-07-30T21:37:11.026Z,27.22
2022-07-30T21:39:42.802Z,27.27
2022-07-30T21:42:10.382Z,27.31
2022-07-30T21:44:38.186Z,27.30
2022-07-30T21:47:10.403Z,27.31
2022-07-30T21:49:38.511Z,27.32
2022-07-30T21:52:06.586Z,27.30
2022-07-30T21:54:47.997Z,27.25
2022-07-30T21:57:26.478Z,27.15
2022-07-30T21:59:57.412Z,27.06
2022-07-30T22:02:25.101Z,27.05
2022-07-30T22:04:53.644Z,27.06
2022-07-30T22:07:22.054Z,27.07
2022-07-30T22:09:50.947Z,27.05
2022-07-30T22:12:18.563Z,27.04
2022-07-30T22:14:49.379Z,26.97
2022-07-30T22:17:23.312Z,26.92
2022-07-30T22:19:57.106Z,26.89
2022-07-30T22:22:27.500Z,26.83
2022-07-30T22:25:13.076Z,26.82
2022-07-30T22:27:56.211Z,26.79
2022-07-30T22:30:30.401Z,26.84
2022-07-30T22:33:08.760Z,26.86
2022-07-30T22:35:36.857Z,26.78
2022-07-30T22:38:04.718Z,26.79
2022-07-30T22:40:33.830Z,26.81
2022-07-30T22:43:04.270Z,26.75
2022-07-30T22:45:48.281Z,26.73
2022-07-30T22:48:17.131Z,26.64
2022-07-30T22:50:44.446Z,26.60
2022-07-30T22:53:56.594Z,26.56
2022-07-30T22:56:05.750Z,26.51
2022-07-30T22:58:32.965Z,26.49
2022-07-30T23:01:00.454Z,26.42
2022-07-30T23:03:27.635Z,26.27
2022-07-30T23:05:56.219Z,26.20
2022-07-30T23:08:29.626Z,26.02
2022-07-30T23:10:59.627Z,25.95
2022-07-30T23:13:28.809Z,25.84
2022-07-30T23:15:56.139Z,25.77
2022-07-30T23:18:23.828Z,25.67
2022-07-30T23:20:51.046Z,25.64
2022-07-30T23:23:18.223Z,25.62
2022-07-30T23:25:45.607Z,25.60
2022-07-30T23:28:12.823Z,25.57
2022-07-30T23:30:41.390Z,25.44
2022-07-30T23:33:08.523Z,25.40
2022-07-30T23:35:36.106Z,25.37
2022-07-30T23:38:03.348Z,25.41
2022-07-30T23:40:30.707Z,25.44
2022-07-30T23:42:58.062Z,25.42
2022-07-30T23:45:25.281Z,25.42
2022-07-30T23:48:02.849Z,25.49
2022-07-30T23:50:31.824Z,25.51
2022-07-30T23:52:59.079Z,25.49
2022-07-30T23:55:27.296Z,25.49
2022-07-30T23:57:54.966Z,25.46
